Time;durP1;ratioP1;P1;durP2;ratioP2;P2;SDS_P1;SDS_P2;PMS_P1;PMS_P2;Temp;Humidity;BMP_temperature;BMP_pressure;BME280_temperature;BME280_humidity;BME280_pressure;Samples;Min_cycle;Max_cycle;Signal;HPM_P1;HPM_P2
2021/01/26 00:00:32;;;;;;;6.00;2.38;;;4.20;96.90;;;;;;5033528;28;20108;-90
2021/01/26 00:02:57;;;;;;;7.35;1.75;;;4.20;96.90;;;;;;5032359;28;20045;-92
2021/01/26 00:05:26;;;;;;;4.63;1.50;;;4.20;96.90;;;;;;5032452;28;20482;-92
2021/01/26 00:07:55;;;;;;;4.03;1.40;;;4.20;96.90;;;;;;5032018;28;20010;-92
2021/01/26 00:10:21;;;;;;;6.50;1.48;;;4.30;96.90;;;;;;5023710;28;20042;-93
2021/01/26 00:12:50;;;;;;;9.32;2.45;;;4.30;96.90;;;;;;5031562;28;20072;-92
2021/01/26 00:15:20;;;;;;;7.68;2.35;;;4.30;96.90;;;;;;5048909;28;20057;-93
2021/01/26 00:17:51;;;;;;;11.25;1.98;;;4.30;96.90;;;;;;5031712;28;20030;-92
2021/01/26 00:20:19;;;;;;;7.32;2.15;;;4.30;96.90;;;;;;5022424;28;20079;-93
2021/01/26 00:22:55;;;;;;;8.50;1.80;;;4.30;97.00;;;;;;5014458;28;20552;-93
2021/01/26 00:25:29;;;;;;;5.57;1.75;;;4.30;97.00;;;;;;5048981;28;20025;-93
2021/01/26 00:28:00;;;;;;;7.63;2.55;;;4.30;97.10;;;;;;5002112;28;20033;-93
2021/01/26 00:30:33;;;;;;;9.65;2.40;;;4.30;97.10;;;;;;5033220;28;20025;-92
2021/01/26 00:33:10;;;;;;;10.10;2.67;;;4.40;97.00;;;;;;5031735;28;20638;-93
2021/01/26 00:35:37;;;;;;;6.25;1.90;;;4.30;97.00;;;;;;5032154;28;20029;-93
2021/01/26 00:38:04;;;;;;;11.85;2.30;;;4.30;97.00;;;;;;5031189;28;20042;-93
2021/01/26 00:40:41;;;;;;;;;;;;;;;;;;;;;
2021/01/26 00:43:11;;;;;;;12.18;2.90;;;4.30;97.10;;;;;;5028062;28;20041;-92
2021/01/26 00:45:39;;;;;;;10.93;2.65;;;4.30;97.40;;;;;;5024298;28;20022;-93
2021/01/26 00:48:06;;;;;;;9.30;2.30;;;4.30;97.20;;;;;;5015237;28;20229;-92
2021/01/26 00:50:34;;;;;;;10.93;2.60;;;4.30;97.20;;;;;;5034988;28;20041;-92
2021/01/26 00:53:18;;;;;;;;;;;;;;;;;;;;;
2021/01/26 00:55:44;;;;;;;7.93;2.28;;;4.40;97.10;;;;;;5032813;28;20026;-92
2021/01/26 00:58:23;;;;;;;5.10;1.67;;;4.40;97.00;;;;;;5033126;28;20545;-93
2021/01/26 01:00:48;;;;;;;6.53;1.70;;;4.30;97.00;;;;;;5002482;28;20116;-93
2021/01/26 01:03:27;;;;;;;10.75;1.70;;;4.30;96.90;;;;;;5048121;28;20072;-93
2021/01/26 01:05:55;;;;;;;5.55;1.48;;;4.30;96.90;;;;;;5018566;28;20024;-93
2021/01/26 01:08:24;;;;;;;11.98;2.22;;;4.30;97.00;;;;;;5019028;28;20022;-92
2021/01/26 01:10:54;;;;;;;9.32;2.30;;;4.30;96.90;;;;;;5020690;28;20103;-93
2021/01/26 01:13:22;;;;;;;9.05;3.15;;;4.30;96.80;;;;;;5035431;28;20030;-93
2021/01/26 01:15:52;;;;;;;13.50;3.90;;;4.30;96.90;;;;;;5036347;28;20466;-93
2021/01/26 01:18:21;;;;;;;15.57;4.57;;;4.30;97.00;;;;;;5035165;28;20098;-93
2021/01/26 01:20:49;;;;;;;16.85;4.07;;;4.20;97.00;;;;;;5035433;28;20129;-94
2021/01/26 01:23:17;;;;;;;16.55;3.78;;;4.30;97.10;;;;;;5010137;28;20061;-93
2021/01/26 01:25:45;;;;;;;16.60;3.95;;;4.30;97.20;;;;;;4999326;28;20037;-93
2021/01/26 01:28:16;;;;;;;15.95;4.50;;;4.30;97.20;;;;;;5036010;28;20025;-93
2021/01/26 01:30:53;;;;;;;16.90;3.95;;;4.30;97.30;;;;;;5021557;28;20087;-93
2021/01/26 01:33:21;;;;;;;16.30;4.00;;;4.30;97.30;;;;;;5014948;28;20041;-93
2021/01/26 01:35:47;;;;;;;13.43;4.32;;;4.30;97.30;;;;;;5016195;28;20014;-93
2021/01/26 01:38:23;;;;;;;;;;;;;;;;;;;;;
2021/01/26 01:40:53;;;;;;;19.52;3.65;;;4.30;97.40;;;;;;5055569;28;20052;-92
2021/01/26 01:43:20;;;;;;;9.83;3.40;;;4.30;97.40;;;;;;5028024;28;20025;-93
2021/01/26 01:45:46;;;;;;;17.80;3.20;;;4.30;97.40;;;;;;5055564;28;20021;-93
2021/01/26 01:48:19;;;;;;;9.00;2.65;;;4.30;97.30;;;;;;5055746;28;20025;-93
2021/01/26 01:51:01;;;;;;;9.68;2.35;;;4.40;97.30;;;;;;5038324;28;20083;-93
2021/01/26 01:53:42;;;;;;;8.38;2.63;;;4.30;97.30;;;;;;5055640;28;20088;-92
2021/01/26 01:56:24;;;;;;;;;;;4.40;97.30;;;;;;5038264;28;20040;-93
2021/01/26 01:58:55;;;;;;;;;;;4.30;97.20;;;;;;5037973;28;19905;-93
2021/01/26 02:01:29;;;;;;;10.95;1.77;;;4.30;97.30;;;;;;5034802;28;19909;-93
2021/01/26 02:04:00;;;;;;;12.80;2.88;;;4.30;97.30;;;;;;5038814;28;20025;-93
2021/01/26 02:06:30;;;;;;;8.43;2.17;;;4.30;97.30;;;;;;5052062;28;20069;-93
2021/01/26 02:09:33;;;;;;;;;;;;;;;;;;;;;
2021/01/26 02:11:59;;;;;;;13.10;2.95;;;4.30;97.30;;;;;;5078478;28;20037;-92
2021/01/26 02:14:27;;;;;;;9.40;2.10;;;4.30;97.40;;;;;;5059519;28;20044;-92
2021/01/26 02:16:58;;;;;;;13.68;2.83;;;4.30;97.30;;;;;;5055505;28;20040;-92
2021/01/26 02:19:45;;;;;;;12.05;3.20;;;4.30;97.30;;;;;;5074959;28;20085;-92
2021/01/26 02:22:48;;;;;;;11.05;2.38;;;4.30;97.30;;;;;;5055420;28;20021;-93
2021/01/26 02:25:41;;;;;;;14.15;2.85;;;4.30;97.30;;;;;;5038829;28;20488;-93
2021/01/26 02:28:38;;;;;;;7.75;2.38;;;4.30;97.30;;;;;;5025965;28;20017;-93
2021/01/26 02:31:09;;;;;;;9.63;2.53;;;4.30;97.30;;;;;;5033849;28;20017;-92
2021/01/26 02:33:50;;;;;;;7.35;2.03;;;4.30;97.20;;;;;;5047400;28;20060;-93
2021/01/26 02:36:47;;;;;;;14.25;2.20;;;4.30;97.30;;;;;;5037508;28;20060;-92
2021/01/26 02:39:31;;;;;;;13.77;2.05;;;4.30;97.30;;;;;;5037171;28;20033;-92
2021/01/26 02:42:35;;;;;;;12.75;2.40;;;4.30;97.20;;;;;;5036770;28;20029;-92
2021/01/26 02:45:15;;;;;;;12.02;2.03;;;4.30;97.20;;;;;;5022659;28;20413;-92
2021/01/26 02:48:09;;;;;;;11.13;1.50;;;4.30;97.20;;;;;;5037047;28;20075;-92
2021/01/26 02:51:14;;;;;;;14.90;2.03;;;4.20;97.20;;;;;;5054825;28;20028;-92
2021/01/26 02:54:03;;;;;;;8.57;1.85;;;4.20;97.30;;;;;;5018508;28;20048;-92
2021/01/26 02:56:56;;;;;;;6.82;1.80;;;4.20;97.30;;;;;;5035826;28;20515;-92
2021/01/26 02:59:40;;;;;;;11.63;1.42;;;4.20;97.40;;;;;;5036351;28;20462;-92
2021/01/26 03:02:13;;;;;;;13.77;2.25;;;4.20;97.30;;;;;;5023813;28;20053;-91
2021/01/26 03:05:01;;;;;;;8.23;1.73;;;4.30;97.40;;;;;;5036364;28;20037;-92
2021/01/26 03:07:29;;;;;;;15.38;2.30;;;4.30;97.40;;;;;;5036782;28;20071;-92
2021/01/26 03:10:00;;;;;;;10.50;2.58;;;4.30;97.30;;;;;;5035156;28;20234;-92
2021/01/26 03:12:37;;;;;;;13.45;3.28;;;4.30;97.20;;;;;;5037347;28;20527;-92
2021/01/26 03:15:17;;;;;;;12.02;1.92;;;4.20;97.20;;;;;;5036573;28;20037;-92
2021/01/26 03:17:49;;;;;;;12.20;1.65;;;4.20;97.30;;;;;;5037368;28;20025;-91
2021/01/26 03:20:18;;;;;;;8.90;2.15;;;4.20;97.20;;;;;;5036243;28;20572;-92
2021/01/26 03:22:50;;;;;;;10.98;2.00;;;4.20;97.20;;;;;;5036422;28;20053;-92
2021/01/26 03:25:22;;;;;;;10.60;2.08;;;4.20;97.20;;;;;;5035540;28;20049;-92
2021/01/26 03:27:52;;;;;;;16.02;1.98;;;4.20;97.20;;;;;;5035905;28;20108;-93
2021/01/26 03:30:24;;;;;;;13.80;1.50;;;4.20;97.20;;;;;;5021823;28;20025;-93
2021/01/26 03:32:56;;;;;;;12.60;1.02;;;4.20;97.20;;;;;;5053486;28;20028;-92
2021/01/26 03:35:22;;;;;;;6.40;1.30;;;4.20;97.30;;;;;;5034264;28;20445;-92
2021/01/26 03:37:57;;;;;;;8.32;1.70;;;4.20;97.20;;;;;;5032441;28;20064;-92
2021/01/26 03:40:35;;;;;;;;;;;;;;;;;;;;;
2021/01/26 03:43:02;;;;;;;9.85;1.17;;;4.20;97.00;;;;;;5012613;28;20026;-92
2021/01/26 03:45:30;;;;;;;6.88;0.98;;;4.20;97.00;;;;;;5015966;28;20048;-93
2021/01/26 03:48:16;;;;;;;6.38;0.85;;;4.20;97.00;;;;;;5015862;28;20017;-93
2021/01/26 03:50:57;;;;;;;6.38;1.17;;;4.30;97.10;;;;;;5012376;28;20030;-92
2021/01/26 03:53:51;;;;;;;9.80;1.08;;;4.30;97.00;;;;;;5017714;28;20041;-93
2021/01/26 03:56:42;;;;;;;4.93;1.13;;;4.20;96.90;;;;;;5018178;28;20112;-92
2021/01/26 03:59:41;;;;;;;8.52;1.63;;;4.20;96.80;;;;;;5016005;28;20022;-92
2021/01/26 04:02:14;;;;;;;10.13;1.13;;;4.10;96.90;;;;;;5004087;28;20026;-92
2021/01/26 04:04:45;;;;;;;8.98;1.20;;;4.10;96.80;;;;;;5016166;28;20112;-92
2021/01/26 04:07:27;;;;;;;8.48;1.35;;;4.10;97.00;;;;;;5016828;28;20079;-92
2021/01/26 04:09:59;;;;;;;6.88;1.75;;;4.10;96.90;;;;;;5034126;28;20033;-92
2021/01/26 04:12:29;;;;;;;6.25;1.00;;;4.10;97.00;;;;;;5016067;28;20059;-92
2021/01/26 04:15:18;;;;;;;6.47;1.15;;;4.10;97.00;;;;;;5016082;28;20071;-92
2021/01/26 04:17:49;;;;;;;10.35;1.88;;;4.10;97.10;;;;;;5015862;28;20034;-91
2021/01/26 04:20:23;;;;;;;6.07;1.25;;;4.10;97.10;;;;;;5015756;28;20059;-91
2021/01/26 04:23:00;;;;;;;7.18;1.40;;;4.20;97.10;;;;;;5016412;28;20120;-92
2021/01/26 04:25:42;;;;;;;17.10;2.65;;;4.10;97.10;;;;;;5016335;28;20566;-91
2021/01/26 04:28:18;;;;;;;9.55;1.60;;;4.10;97.10;;;;;;5033455;28;20025;-92
2021/01/26 04:30:44;;;;;;;9.52;1.23;;;4.20;97.20;;;;;;5033871;28;20104;-92
2021/01/26 04:33:14;;;;;;;12.27;1.90;;;4.20;97.20;;;;;;4999955;28;20570;-91
2021/01/26 04:35:40;;;;;;;9.73;1.60;;;4.20;97.20;;;;;;5016292;28;20014;-92
2021/01/26 04:38:06;;;;;;;9.95;1.40;;;4.20;97.20;;;;;;5043339;28;20056;-92
2021/01/26 04:40:34;;;;;;;9.68;1.75;;;4.20;97.10;;;;;;5001120;28;20032;-92
2021/01/26 04:43:11;;;;;;;7.60;1.30;;;4.30;97.20;;;;;;5037781;28;20109;-92
2021/01/26 04:45:50;;;;;;;8.77;0.93;;;4.30;97.20;;;;;;5030791;28;20025;-91
2021/01/26 04:48:29;;;;;;;13.57;1.60;;;4.30;97.20;;;;;;5032075;28;20029;-92
2021/01/26 04:51:17;;;;;;;15.20;1.27;;;4.30;97.20;;;;;;5043594;28;20025;-92
2021/01/26 04:54:04;;;;;;;9.50;1.45;;;4.30;97.20;;;;;;5023498;28;20098;-91
2021/01/26 04:56:55;;;;;;;15.02;2.85;;;4.30;97.20;;;;;;5037559;28;20026;-92
2021/01/26 04:59:58;;;;;;;8.90;2.30;;;4.30;97.20;;;;;;5032633;28;20370;-91
2021/01/26 05:03:06;;;;;;;12.23;1.70;;;4.30;97.30;;;;;;5017861;28;20041;-91
2021/01/26 05:05:34;;;;;;;10.95;1.73;;;4.30;97.20;;;;;;5030981;28;20030;-91
2021/01/26 05:08:08;;;;;;;12.27;1.98;;;4.40;97.50;;;;;;5019560;28;20061;-92
2021/01/26 05:10:41;;;;;;;15.90;1.67;;;4.40;97.30;;;;;;5019734;28;20032;-91
2021/01/26 05:13:23;;;;;;;8.82;1.58;;;4.40;97.30;;;;;;5037239;28;20096;-91
2021/01/26 05:16:02;;;;;;;13.30;2.58;;;4.40;97.30;;;;;;5019603;28;20028;-92
2021/01/26 05:19:00;;;;;;;9.57;2.03;;;4.40;97.30;;;;;;5014575;28;20552;-91
2021/01/26 05:21:34;;;;;;;10.80;1.70;;;4.40;97.30;;;;;;5038031;28;20047;-91
2021/01/26 05:24:11;;;;;;;13.20;3.38;;;4.40;97.40;;;;;;5028526;28;20029;-91
2021/01/26 05:26:37;;;;;;;12.40;1.70;;;4.40;97.30;;;;;;5033238;28;20017;-92
2021/01/26 05:29:02;;;;;;;13.93;2.08;;;4.40;97.30;;;;;;5013829;28;20033;-92
2021/01/26 05:31:28;;;;;;;12.25;1.85;;;4.40;97.30;;;;;;5025218;28;20148;-93
2021/01/26 05:34:01;;;;;;;9.68;1.95;;;4.40;97.30;;;;;;5006918;28;20033;-92
2021/01/26 05:36:27;;;;;;;8.27;1.85;;;4.40;97.40;;;;;;5026298;28;20045;-92
2021/01/26 05:38:52;;;;;;;13.05;2.63;;;4.40;97.40;;;;;;4986613;28;20513;-92
2021/01/26 05:41:20;;;;;;;6.57;1.85;;;4.40;97.40;;;;;;5003076;28;20036;-92
2021/01/26 05:43:51;;;;;;;13.07;1.90;;;4.50;97.40;;;;;;5020236;28;20032;-92
2021/01/26 05:46:43;;;;;;;10.63;2.22;;;4.50;97.30;;;;;;5019798;28;20028;-92
2021/01/26 05:49:09;;;;;;;11.77;1.45;;;4.40;97.30;;;;;;5011863;28;20025;-92
2021/01/26 05:51:38;;;;;;;11.45;1.48;;;4.40;97.30;;;;;;5029356;28;20029;-92
2021/01/26 05:54:21;;;;;;;8.35;1.30;;;4.40;97.40;;;;;;5001589;28;20057;-93
2021/01/26 05:56:50;;;;;;;10.80;1.40;;;4.50;97.50;;;;;;5020112;28;20009;-92
2021/01/26 05:59:34;;;;;;;8.82;2.28;;;4.50;97.50;;;;;;5042680;28;20037;-91
2021/01/26 06:02:10;;;;;;;11.10;1.77;;;4.50;97.40;;;;;;5038265;28;20048;-91
2021/01/26 06:04:38;;;;;;;14.57;1.98;;;4.50;97.50;;;;;;5040818;28;20044;-92
2021/01/26 06:07:04;;;;;;;8.07;1.42;;;4.60;97.50;;;;;;5040136;28;20060;-92
2021/01/26 06:09:42;;;;;;;6.35;1.38;;;4.50;97.60;;;;;;5025671;28;20026;-91
2021/01/26 06:12:11;;;;;;;14.65;3.45;;;4.60;97.60;;;;;;5018312;28;20026;-92
2021/01/26 06:14:37;;;;;;;8.95;1.33;;;4.50;97.60;;;;;;5009831;28;20255;-92
2021/01/26 06:17:19;;;;;;;11.63;1.90;;;4.60;97.60;;;;;;5024055;28;20026;-91
2021/01/26 06:20:06;;;;;;;11.85;1.70;;;4.60;97.60;;;;;;5006815;28;20018;-92
2021/01/26 06:22:32;;;;;;;7.95;1.40;;;4.60;97.60;;;;;;5025850;28;20474;-92
2021/01/26 06:25:02;;;;;;;5.55;1.38;;;4.60;97.70;;;;;;5017158;28;20030;-91
2021/01/26 06:27:37;;;;;;;8.82;2.05;;;4.60;97.70;;;;;;5023821;28;20040;-92
2021/01/26 06:30:24;;;;;;;9.43;1.58;;;4.60;97.80;;;;;;5018054;28;20025;-91
2021/01/26 06:33:18;;;;;;;9.18;1.38;;;4.60;97.80;;;;;;5010737;28;20029;-90
2021/01/26 06:36:14;;;;;;;6.85;1.38;;;4.70;97.80;;;;;;5031657;28;20021;-90
2021/01/26 06:38:51;;;;;;;7.40;2.08;;;4.60;97.80;;;;;;5026339;28;20454;-90
2021/01/26 06:41:44;;;;;;;9.88;1.80;;;4.60;97.90;;;;;;5008607;28;20014;-91
2021/01/26 06:44:37;;;;;;;11.93;1.60;;;4.60;97.90;;;;;;5024066;28;20026;-91
2021/01/26 06:47:03;;;;;;;4.72;1.30;;;4.60;97.90;;;;;;5017040;28;20018;-92
2021/01/26 06:49:52;;;;;;;7.38;1.75;;;4.60;97.90;;;;;;5022601;28;20021;-92
2021/01/26 06:52:29;;;;;;;7.25;1.33;;;4.60;97.90;;;;;;5016438;28;20466;-93
2021/01/26 06:55:19;;;;;;;9.38;1.23;;;4.60;97.90;;;;;;5028462;28;20030;-92
2021/01/26 06:58:00;;;;;;;7.70;1.85;;;4.60;98.00;;;;;;5031557;28;20018;-91
2021/01/26 07:00:47;;;;;;;6.63;2.00;;;4.60;98.00;;;;;;5031150;28;20037;-91
2021/01/26 07:03:47;;;;;;;8.57;1.73;;;4.70;98.10;;;;;;5011199;28;20036;-92
2021/01/26 07:06:28;;;;;;;6.13;1.65;;;4.70;98.10;;;;;;5009990;28;20061;-92
2021/01/26 07:09:36;;;;;;;9.75;1.80;;;4.70;98.10;;;;;;5027654;28;20029;-92
2021/01/26 07:12:20;;;;;;;5.78;1.38;;;4.70;98.10;;;;;;5014744;28;20061;-91
2021/01/26 07:15:18;;;;;;;10.10;1.70;;;4.70;98.20;;;;;;5030787;28;20061;-91
2021/01/26 07:18:05;;;;;;;10.52;2.22;;;4.70;98.20;;;;;;5021210;28;20014;-92
2021/01/26 07:20:41;;;;;;;11.27;2.58;;;4.70;98.20;;;;;;5026670;28;20072;-91
2021/01/26 07:23:26;;;;;;;7.43;1.95;;;4.70;98.10;;;;;;5016614;28;20040;-92
2021/01/26 07:26:25;;;;;;;6.15;1.80;;;4.70;98.10;;;;;;5028400;28;20567;-91
2021/01/26 07:29:20;;;;;;;8.75;2.50;;;4.70;98.10;;;;;;5032512;28;20022;-93
2021/01/26 07:32:09;;;;;;;7.32;1.67;;;4.70;98.00;;;;;;5016938;28;20533;-92
2021/01/26 07:34:58;;;;;;;5.32;1.60;;;4.70;98.10;;;;;;5016543;28;20076;-92
2021/01/26 07:37:56;;;;;;;8.07;1.45;;;4.70;98.10;;;;;;5013036;28;20056;-93
2021/01/26 07:40:39;;;;;;;5.40;1.75;;;4.70;98.10;;;;;;5031436;28;20030;-90
2021/01/26 07:43:40;;;;;;;6.03;1.70;;;4.70;98.10;;;;;;5033767;28;20092;-92
2021/01/26 07:46:25;;;;;;;8.93;1.83;;;4.70;98.10;;;;;;5012459;28;20040;-91
2021/01/26 07:49:11;;;;;;;9.32;2.05;;;4.70;98.10;;;;;;5007095;28;20021;-91
2021/01/26 07:51:48;;;;;;;5.43;1.50;;;4.70;98.10;;;;;;5015501;28;20049;-92
2021/01/26 07:54:29;;;;;;;4.50;1.50;;;4.70;98.00;;;;;;5012814;28;20025;-90
2021/01/26 07:56:59;;;;;;;5.45;1.55;;;4.70;98.00;;;;;;5021910;28;20018;-90
2021/01/26 07:59:38;;;;;;;7.65;2.22;;;4.70;98.10;;;;;;5015646;28;20021;-90
2021/01/26 08:02:28;;;;;;;;;;;;;;;;;;;;;
2021/01/26 08:05:12;;;;;;;4.68;1.50;;;4.70;98.00;;;;;;5032853;28;20040;-89
2021/01/26 08:07:38;;;;;;;6.78;1.88;;;4.70;98.00;;;;;;5012066;28;20527;-92
2021/01/26 08:10:14;;;;;;;3.17;1.00;;;4.70;98.00;;;;;;5027516;28;20112;-91
2021/01/26 08:12:44;;;;;;;7.07;1.63;;;4.70;98.10;;;;;;5013701;28;20029;-91
2021/01/26 08:15:32;;;;;;;6.25;1.48;;;4.70;98.10;;;;;;5015955;28;20048;-91
2021/01/26 08:18:16;;;;;;;7.10;1.52;;;4.70;98.00;;;;;;5006326;28;20496;-90
2021/01/26 08:20:42;;;;;;;4.25;1.52;;;4.70;98.00;;;;;;4994536;28;20369;-91
2021/01/26 08:23:19;;;;;;;4.35;1.63;;;4.70;98.00;;;;;;5007971;28;20116;-90
2021/01/26 08:25:50;;;;;;;7.95;1.88;;;4.70;98.10;;;;;;5027359;28;20022;-91
2021/01/26 08:28:38;;;;;;;5.95;1.92;;;4.70;98.10;;;;;;5011458;28;20033;-90
2021/01/26 08:31:23;;;;;;;7.70;1.85;;;4.70;98.10;;;;;;5027401;28;20030;-92
2021/01/26 08:33:52;;;;;;;5.85;2.17;;;4.70;98.10;;;;;;5013930;28;20057;-87
2021/01/26 08:37:17;;;;;;;7.22;1.90;;;4.70;98.10;;;;;;5033401;28;20046;-89
2021/01/26 08:39:57;;;;;;;8.13;1.77;;;4.70;98.10;;;;;;5022015;28;20029;-90
2021/01/26 08:42:41;;;;;;;10.07;2.00;;;4.80;98.10;;;;;;5006221;28;20022;-90
2021/01/26 08:45:26;;;;;;;9.63;2.28;;;4.70;98.20;;;;;;5007142;28;20465;-92
2021/01/26 08:48:20;;;;;;;11.38;2.55;;;4.80;98.10;;;;;;5009082;28;20516;-93
2021/01/26 08:50:58;;;;;;;6.32;1.67;;;4.80;98.20;;;;;;5013042;28;20080;-91
2021/01/26 08:53:30;;;;;;;7.30;2.35;;;4.80;98.20;;;;;;5014780;28;20041;-90
2021/01/26 08:56:20;;;;;;;5.35;1.67;;;4.80;98.20;;;;;;5028623;28;20474;-91
2021/01/26 08:58:48;;;;;;;5.22;1.77;;;4.90;98.20;;;;;;5008389;28;20582;-90
2021/01/26 09:01:37;;;;;;;5.55;1.30;;;4.90;98.30;;;;;;5013537;28;20421;-91
2021/01/26 09:04:32;;;;;;;8.90;1.92;;;4.90;98.30;;;;;;5025624;28;20125;-89
2021/01/26 09:07:32;;;;;;;6.45;1.70;;;5.00;98.20;;;;;;5033384;28;20043;-90
2021/01/26 09:09:58;;;;;;;5.85;2.08;;;5.00;98.30;;;;;;5027641;28;20044;-91
2021/01/26 09:12:27;;;;;;;8.98;2.05;;;5.00;98.30;;;;;;5042535;28;20014;-89
2021/01/26 09:15:00;;;;;;;8.05;2.00;;;5.00;98.30;;;;;;5035107;28;20117;-90
2021/01/26 09:17:33;;;;;;;10.45;2.00;;;5.00;98.20;;;;;;5038769;28;20087;-91
2021/01/26 09:20:15;;;;;;;5.57;1.73;;;5.10;98.30;;;;;;5047777;28;20022;-90
2021/01/26 09:22:40;;;;;;;;;;;5.10;98.20;;;;;;5025876;28;20021;-90
2021/01/26 09:25:26;;;;;;;5.07;1.80;;;5.10;98.20;;;;;;5017742;28;20336;-89
2021/01/26 09:28:06;;;;;;;11.73;2.03;;;5.20;98.30;;;;;;5016938;28;20021;-88
2021/01/26 09:30:36;;;;;;;5.53;1.75;;;5.20;98.20;;;;;;5039325;28;20047;-90
2021/01/26 09:33:14;;;;;;;7.60;2.53;;;5.20;98.10;;;;;;5017672;28;20018;-90
2021/01/26 09:35:42;;;;;;;7.85;1.88;;;5.20;98.20;;;;;;5018908;28;20033;-90
2021/01/26 09:38:24;;;;;;;6.28;1.73;;;5.20;98.20;;;;;;5018456;28;20030;-88
2021/01/26 09:41:12;;;;;;;8.18;1.95;;;5.20;98.30;;;;;;5021105;28;20032;-91
2021/01/26 09:43:42;;;;;;;7.07;2.10;;;5.30;98.30;;;;;;5015723;28;20029;-91
2021/01/26 09:46:22;;;;;;;5.70;1.60;;;5.30;98.20;;;;;;5018308;28;20376;-90
2021/01/26 09:48:51;;;;;;;5.93;1.83;;;5.30;98.30;;;;;;5010739;28;20026;-90
2021/01/26 09:51:24;;;;;;;9.52;1.77;;;5.40;98.30;;;;;;5018467;28;20462;-91
2021/01/26 09:54:03;;;;;;;8.48;2.40;;;5.40;98.30;;;;;;5013005;28;20469;-90
2021/01/26 09:56:34;;;;;;;5.57;1.77;;;5.40;98.30;;;;;;5016887;28;20014;-93
2021/01/26 09:59:11;;;;;;;3.35;1.70;;;5.50;98.20;;;;;;4999179;28;20125;-89
2021/01/26 10:01:44;;;;;;;13.68;2.35;;;5.50;98.20;;;;;;5034512;28;20021;-90
2021/01/26 10:04:11;;;;;;;;;;;5.50;98.10;;;;;;5020479;28;20461;-91
2021/01/26 10:06:40;;;;;;;5.55;2.00;;;5.60;98.10;;;;;;5039122;28;19913;-89
2021/01/26 10:09:22;;;;;;;5.47;1.63;;;5.60;98.10;;;;;;5001306;28;20474;-91
2021/01/26 10:11:48;;;;;;;7.60;1.65;;;5.50;98.00;;;;;;5027829;28;20690;-90
2021/01/26 10:14:21;;;;;;;4.22;1.55;;;5.60;98.00;;;;;;5007735;28;20538;-90
2021/01/26 10:16:58;;;;;;;5.70;1.90;;;5.60;97.90;;;;;;5015900;28;20074;-91
2021/01/26 10:19:34;;;;;;;7.43;1.55;;;5.70;97.80;;;;;;5016441;28;20030;-89
2021/01/26 10:22:27;;;;;;;6.88;1.92;;;5.70;97.90;;;;;;5012616;28;20420;-89
2021/01/26 10:25:08;;;;;;;6.65;1.50;;;5.70;98.00;;;;;;5012237;28;20052;-90
2021/01/26 10:27:44;;;;;;;7.93;2.35;;;5.80;97.90;;;;;;5034606;28;20064;-88
2021/01/26 10:30:15;;;;;;;5.95;1.83;;;5.80;97.90;;;;;;5009249;28;20063;-90
2021/01/26 10:32:48;;;;;;;6.25;1.63;;;5.80;97.70;;;;;;5021679;28;20473;-90
2021/01/26 10:35:48;;;;;;;8.57;1.70;;;5.90;97.70;;;;;;5018108;28;20030;-91
2021/01/26 10:38:42;;;;;;;;;;;;;;;;;;;;;
2021/01/26 10:41:18;;;;;;;8.05;1.60;;;5.90;97.80;;;;;;5046839;28;20020;-91
2021/01/26 10:44:06;;;;;;;6.82;2.03;;;6.00;97.90;;;;;;5036787;28;20096;-89
2021/01/26 10:46:59;;;;;;;4.18;1.17;;;6.00;97.90;;;;;;5029666;28;20029;-91
2021/01/26 10:49:51;;;;;;;4.78;1.60;;;6.10;98.00;;;;;;5037069;28;20029;-93
2021/01/26 10:52:53;;;;;;;5.63;1.30;;;6.10;97.90;;;;;;5036478;28;20029;-90
2021/01/26 10:55:22;;;;;;;6.35;1.70;;;6.20;97.90;;;;;;5036765;28;20466;-92
2021/01/26 10:57:54;;;;;;;9.77;1.77;;;6.20;97.90;;;;;;5034131;28;20067;-89
2021/01/26 11:00:31;;;;;;;4.55;1.52;;;6.30;97.80;;;;;;5021047;28;20061;-93
2021/01/26 11:02:57;;;;;;;4.65;1.60;;;6.40;97.70;;;;;;5039551;28;20031;-91
2021/01/26 11:05:32;;;;;;;5.90;1.30;;;6.40;97.60;;;;;;5039991;28;20466;-92
2021/01/26 11:08:02;;;;;;;6.15;2.03;;;6.40;97.70;;;;;;5040435;28;20029;-92
2021/01/26 11:10:34;;;;;;;6.90;1.35;;;6.40;97.40;;;;;;5019530;28;20029;-90
2021/01/26 11:13:00;;;;;;;7.72;1.40;;;6.50;97.40;;;;;;5006228;28;20025;-90
2021/01/26 11:15:35;;;;;;;5.93;1.27;;;6.50;97.40;;;;;;5057037;28;20036;-91
2021/01/26 11:18:11;;;;;;;6.40;2.00;;;6.60;97.40;;;;;;5051289;28;20741;-91
2021/01/26 11:20:37;;;;;;;7.90;1.70;;;6.60;97.30;;;;;;5033676;28;20070;-91
2021/01/26 11:23:03;;;;;;;5.70;1.90;;;6.60;97.40;;;;;;5038125;28;20025;-93
2021/01/26 11:25:29;;;;;;;6.78;1.83;;;6.60;97.30;;;;;;5038265;28;20024;-90
2021/01/26 11:27:55;;;;;;;7.60;2.50;;;6.70;97.30;;;;;;5037113;28;20017;-91
2021/01/26 11:30:27;;;;;;;5.45;2.00;;;6.70;97.50;;;;;;5033399;28;20029;-89
2021/01/26 11:33:04;;;;;;;8.68;2.10;;;6.70;97.50;;;;;;5037197;28;20044;-91
2021/01/26 11:35:51;;;;;;;4.65;1.70;;;6.70;97.60;;;;;;5054514;28;20477;-90
2021/01/26 11:38:19;;;;;;;10.38;2.45;;;6.80;97.60;;;;;;5018369;28;20049;-90
2021/01/26 11:41:01;;;;;;;6.97;2.28;;;6.80;97.70;;;;;;5035726;28;20041;-93
2021/01/26 11:43:34;;;;;;;7.10;2.45;;;6.90;97.60;;;;;;5033933;28;20024;-91
2021/01/26 11:46:04;;;;;;;6.18;2.15;;;6.90;97.60;;;;;;5043469;28;20021;-89
2021/01/26 11:48:30;;;;;;;9.20;1.92;;;6.90;97.50;;;;;;5042729;28;20487;-92
2021/01/26 11:50:55;;;;;;;9.63;2.45;;;6.90;97.50;;;;;;5033556;28;20108;-92
2021/01/26 11:53:22;;;;;;;4.25;1.90;;;6.90;97.50;;;;;;5033989;28;20060;-93
2021/01/26 11:55:49;;;;;;;6.80;2.28;;;7.00;97.60;;;;;;5007748;28;20088;-93
2021/01/26 11:58:15;;;;;;;9.75;1.90;;;7.00;97.60;;;;;;5052487;28;20173;-92
2021/01/26 12:00:41;;;;;;;6.75;2.00;;;7.10;97.60;;;;;;5052574;28;20013;-92
2021/01/26 12:03:08;;;;;;;6.55;2.22;;;7.20;97.50;;;;;;5033857;28;20049;-91
2021/01/26 12:05:37;;;;;;;5.32;1.85;;;7.20;97.50;;;;;;5035269;28;20032;-91
2021/01/26 12:08:03;;;;;;;9.30;2.58;;;7.30;97.50;;;;;;5021112;28;20104;-91
2021/01/26 12:10:29;;;;;;;5.53;1.75;;;7.30;96.80;;;;;;5034488;28;20017;-93
2021/01/26 12:12:55;;;;;;;5.68;1.65;;;7.40;96.90;;;;;;5031483;28;20029;-90
2021/01/26 12:15:26;;;;;;;5.82;2.17;;;7.40;96.90;;;;;;5034589;28;20041;-91
2021/01/26 12:17:52;;;;;;;8.70;1.98;;;7.40;96.60;;;;;;5034529;28;20112;-92
2021/01/26 12:20:20;;;;;;;6.53;1.60;;;7.40;96.40;;;;;;5005215;28;20103;-91
2021/01/26 12:22:46;;;;;;;6.85;1.40;;;7.40;96.50;;;;;;5050164;28;20028;-92
2021/01/26 12:25:16;;;;;;;7.15;1.60;;;7.40;96.50;;;;;;5017739;28;20034;-91
2021/01/26 12:27:42;;;;;;;7.68;1.63;;;7.30;96.30;;;;;;5017771;28;20041;-91
2021/01/26 12:30:09;;;;;;;4.70;1.27;;;7.40;96.20;;;;;;5035729;28;20051;-92
2021/01/26 12:32:35;;;;;;;7.93;1.48;;;7.40;96.40;;;;;;5029504;28;20021;-90
2021/01/26 12:35:03;;;;;;;6.20;1.48;;;7.40;95.80;;;;;;5035732;28;20052;-90
2021/01/26 12:37:29;;;;;;;3.78;1.27;;;7.40;95.80;;;;;;4996439;28;20141;-89
2021/01/26 12:39:55;;;;;;;7.63;1.55;;;7.50;95.90;;;;;;4999523;28;20117;-90
2021/01/26 12:42:20;;;;;;;9.38;2.25;;;7.50;95.90;;;;;;5006252;28;20026;-91
2021/01/26 12:44:47;;;;;;;7.47;1.83;;;7.50;95.80;;;;;;4985636;28;20057;-89
2021/01/26 12:47:13;;;;;;;10.63;2.35;;;7.60;95.70;;;;;;5028276;28;20109;-90
2021/01/26 12:49:38;;;;;;;10.98;2.55;;;7.60;95.60;;;;;;5016207;28;20049;-89
2021/01/26 12:52:05;;;;;;;6.70;1.83;;;7.60;95.80;;;;;;5007882;28;20093;-90
2021/01/26 12:54:49;;;;;;;11.05;2.83;;;7.60;95.80;;;;;;5047379;28;20028;-88
2021/01/26 12:57:23;;;;;;;8.30;1.80;;;7.70;95.90;;;;;;5044144;28;20113;-88
2021/01/26 12:59:51;;;;;;;6.13;1.80;;;7.70;95.80;;;;;;5049315;28;20005;-90
2021/01/26 13:02:20;;;;;;;6.85;1.63;;;7.70;95.60;;;;;;5019605;28;20033;-88
2021/01/26 13:04:45;;;;;;;8.63;1.42;;;7.60;95.50;;;;;;5013921;28;20022;-88
2021/01/26 13:07:11;;;;;;;5.32;1.65;;;7.60;95.20;;;;;;5004968;28;20048;-89
2021/01/26 13:09:37;;;;;;;6.90;1.70;;;7.60;95.40;;;;;;5051034;28;20038;-91
2021/01/26 13:12:02;;;;;;;12.48;2.00;;;7.70;95.50;;;;;;5025580;28;20068;-91
2021/01/26 13:14:29;;;;;;;6.18;1.23;;;7.70;95.30;;;;;;5015292;28;20046;-90
2021/01/26 13:16:55;;;;;;;4.60;1.10;;;7.70;94.80;;;;;;5019806;28;20079;-90
2021/01/26 13:19:27;;;;;;;4.38;1.23;;;7.70;94.70;;;;;;4990469;28;20026;-90
2021/01/26 13:21:52;;;;;;;5.25;1.60;;;7.60;94.90;;;;;;5002757;28;20037;-91
2021/01/26 13:24:19;;;;;;;3.00;1.00;;;7.60;95.10;;;;;;5020045;28;20543;-91
2021/01/26 13:26:44;;;;;;;4.25;1.45;;;7.60;94.80;;;;;;5019135;28;20033;-91
2021/01/26 13:29:10;;;;;;;4.75;1.45;;;7.60;94.60;;;;;;5018794;28;20065;-93
2021/01/26 13:31:36;;;;;;;6.38;1.20;;;7.60;94.90;;;;;;5001821;28;20508;-91
2021/01/26 13:34:02;;;;;;;6.25;1.65;;;7.60;95.10;;;;;;5004868;28;20068;-91
2021/01/26 13:36:28;;;;;;;8.85;3.08;;;7.70;95.10;;;;;;5018053;28;20076;-89
2021/01/26 13:38:54;;;;;;;7.78;2.50;;;7.70;94.90;;;;;;5029972;28;20121;-89
2021/01/26 13:41:19;;;;;;;5.88;1.90;;;7.70;94.90;;;;;;5036149;28;20036;-89
2021/01/26 13:43:45;;;;;;;15.00;4.65;;;7.70;95.00;;;;;;5019007;28;20122;-88
2021/01/26 13:46:11;;;;;;;7.95;3.03;;;7.80;94.70;;;;;;5035351;28;20031;-89
2021/01/26 13:48:37;;;;;;;7.30;2.33;;;7.80;94.60;;;;;;5035797;28;20433;-89